Terminal Aerodrome Forecast
Issued by NWS Melbourne, FL

Home | Current Version | Previous Version | Text Only | Print | Product List | Glossary On
Versions: 1 2 3 4 5 6 7 8 9 10 11 12 13 14 15 16 17 18 19 20 21 22
000
FTUS42 KMLB 011135
TAFMLB
TAF
KMLB 011135Z 0112/0212 09008KT P6SM SCT020 OVC035
      TEMPO 0112/0114 5SM -SHRA BKN025
     FM011400 11011KT P6SM SCT020 BKN035
     FM011800 11012KT P6SM VCSH BKN035
     FM020000 10006KT P6SM SCT020 BKN080
     FM020900 VRB03KT P6SM SCT003 BKN008=

USA.gov is the U.S. government's official web portal to all federal, state and local government web resources and services.